sensor_id;sensor_type;location;lat;lon;timestamp;temperature;humidity
21425;DHT22;10873;51.132;16.848;2023-05-16T00:00:58;25.90;55.20
21425;DHT22;10873;51.132;16.848;2023-05-16T00:03:26;25.90;55.20
21425;DHT22;10873;51.132;16.848;2023-05-16T00:05:52;25.90;55.20
21425;DHT22;10873;51.132;16.848;2023-05-16T00:08:18;25.90;55.20
21425;DHT22;10873;51.132;16.848;2023-05-16T00:10:46;25.90;55.10
21425;DHT22;10873;51.132;16.848;2023-05-16T00:13:12;25.90;55.10
21425;DHT22;10873;51.132;16.848;2023-05-16T00:15:38;25.90;55.10
21425;DHT22;10873;51.132;16.848;2023-05-16T00:18:04;25.90;55.10
21425;DHT22;10873;51.132;16.848;2023-05-16T00:20:30;25.90;55.10
21425;DHT22;10873;51.132;16.848;2023-05-16T00:22:56;25.90;55.00
21425;DHT22;10873;51.132;16.848;2023-05-16T00:25:26;25.80;55.00
21425;DHT22;10873;51.132;16.848;2023-05-16T00:27:53;25.90;55.00
21425;DHT22;10873;51.132;16.848;2023-05-16T00:30:20;25.80;54.90
21425;DHT22;10873;51.132;16.848;2023-05-16T00:32:47;25.90;55.60
21425;DHT22;10873;51.132;16.848;2023-05-16T00:35:13;25.80;54.90
21425;DHT22;10873;51.132;16.848;2023-05-16T00:37:39;25.80;54.90
21425;DHT22;10873;51.132;16.848;2023-05-16T00:40:06;25.80;54.90
21425;DHT22;10873;51.132;16.848;2023-05-16T00:42:32;25.80;54.90
21425;DHT22;10873;51.132;16.848;2023-05-16T00:44:59;25.90;55.00
21425;DHT22;10873;51.132;16.848;2023-05-16T00:47:25;25.80;55.00
21425;DHT22;10873;51.132;16.848;2023-05-16T00:49:51;25.80;55.00
21425;DHT22;10873;51.132;16.848;2023-05-16T00:52:18;25.80;55.00
21425;DHT22;10873;51.132;16.848;2023-05-16T00:54:44;25.80;55.10
21425;DHT22;10873;51.132;16.848;2023-05-16T00:57:10;25.80;55.10
21425;DHT22;10873;51.132;16.848;2023-05-16T00:59:36;25.80;55.10
21425;DHT22;10873;51.132;16.848;2023-05-16T01:02:04;25.80;55.10
21425;DHT22;10873;51.132;16.848;2023-05-16T01:04:31;25.80;55.20
21425;DHT22;10873;51.132;16.848;2023-05-16T01:06:58;25.80;55.10
21425;DHT22;10873;51.132;16.848;2023-05-16T01:09:24;25.80;55.10
21425;DHT22;10873;51.132;16.848;2023-05-16T01:11:52;25.80;55.20
21425;DHT22;10873;51.132;16.848;2023-05-16T01:14:25;25.80;55.20
21425;DHT22;10873;51.132;16.848;2023-05-16T01:17:01;25.80;55.20
21425;DHT22;10873;51.132;16.848;2023-05-16T01:19:46;25.80;55.20
21425;DHT22;10873;51.132;16.848;2023-05-16T01:22:24;25.80;55.20
21425;DHT22;10873;51.132;16.848;2023-05-16T01:25:03;25.70;55.20
21425;DHT22;10873;51.132;16.848;2023-05-16T01:27:31;25.70;55.20
21425;DHT22;10873;51.132;16.848;2023-05-16T01:29:59;25.70;55.20
21425;DHT22;10873;51.132;16.848;2023-05-16T01:32:25;25.70;55.20
21425;DHT22;10873;51.132;16.848;2023-05-16T01:34:52;25.70;55.20
21425;DHT22;10873;51.132;16.848;2023-05-16T01:37:20;25.70;55.20
21425;DHT22;10873;51.132;16.848;2023-05-16T01:39:53;25.70;55.20
21425;DHT22;10873;51.132;16.848;2023-05-16T01:42:24;25.70;55.20
21425;DHT22;10873;51.132;16.848;2023-05-16T01:44:57;25.70;55.30
21425;DHT22;10873;51.132;16.848;2023-05-16T01:47:25;25.70;55.30
21425;DHT22;10873;51.132;16.848;2023-05-16T01:49:57;25.70;55.30
21425;DHT22;10873;51.132;16.848;2023-05-16T01:52:27;25.70;55.40
21425;DHT22;10873;51.132;16.848;2023-05-16T01:54:55;25.70;55.30
21425;DHT22;10873;51.132;16.848;2023-05-16T01:57:25;25.70;55.40
21425;DHT22;10873;51.132;16.848;2023-05-16T01:59:53;25.70;55.40
21425;DHT22;10873;51.132;16.848;2023-05-16T02:02:19;25.70;55.40
21425;DHT22;10873;51.132;16.848;2023-05-16T02:04:45;25.70;55.40
21425;DHT22;10873;51.132;16.848;2023-05-16T02:07:12;25.70;55.40
21425;DHT22;10873;51.132;16.848;2023-05-16T02:09:39;25.70;55.40
21425;DHT22;10873;51.132;16.848;2023-05-16T02:12:06;25.70;55.40
21425;DHT22;10873;51.132;16.848;2023-05-16T02:14:32;25.60;55.40
21425;DHT22;10873;51.132;16.848;2023-05-16T02:16:59;25.60;55.30
21425;DHT22;10873;51.132;16.848;2023-05-16T02:19:25;25.60;55.40
21425;DHT22;10873;51.132;16.848;2023-05-16T02:21:51;25.60;55.40
21425;DHT22;10873;51.132;16.848;2023-05-16T02:24:17;25.60;55.40
21425;DHT22;10873;51.132;16.848;2023-05-16T02:26:43;25.60;55.40
21425;DHT22;10873;51.132;16.848;2023-05-16T02:29:09;25.60;55.40
21425;DHT22;10873;51.132;16.848;2023-05-16T02:31:35;25.60;55.40
21425;DHT22;10873;51.132;16.848;2023-05-16T02:34:03;25.60;55.40
21425;DHT22;10873;51.132;16.848;2023-05-16T02:36:29;25.60;55.40
21425;DHT22;10873;51.132;16.848;2023-05-16T02:38:55;25.60;55.50
21425;DHT22;10873;51.132;16.848;2023-05-16T02:41:21;25.60;55.40
21425;DHT22;10873;51.132;16.848;2023-05-16T02:43:48;25.60;55.30
21425;DHT22;10873;51.132;16.848;2023-05-16T02:46:24;25.60;55.30
21425;DHT22;10873;51.132;16.848;2023-05-16T02:48:51;25.60;55.30
21425;DHT22;10873;51.132;16.848;2023-05-16T02:51:19;25.60;55.30
21425;DHT22;10873;51.132;16.848;2023-05-16T02:53:45;25.60;55.30
21425;DHT22;10873;51.132;16.848;2023-05-16T02:56:11;25.60;55.30
21425;DHT22;10873;51.132;16.848;2023-05-16T02:58:37;25.60;55.30
21425;DHT22;10873;51.132;16.848;2023-05-16T03:01:03;25.60;55.30
21425;DHT22;10873;51.132;16.848;2023-05-16T03:03:29;25.60;55.30
21425;DHT22;10873;51.132;16.848;2023-05-16T03:05:55;25.60;55.20
21425;DHT22;10873;51.132;16.848;2023-05-16T03:08:23;25.60;55.20
21425;DHT22;10873;51.132;16.848;2023-05-16T03:10:49;25.60;55.20
21425;DHT22;10873;51.132;16.848;2023-05-16T03:13:15;25.50;55.10
21425;DHT22;10873;51.132;16.848;2023-05-16T03:15:41;25.50;55.10
21425;DHT22;10873;51.132;16.848;2023-05-16T03:18:07;25.50;55.10
21425;DHT22;10873;51.132;16.848;2023-05-16T03:20:33;25.50;55.10
21425;DHT22;10873;51.132;16.848;2023-05-16T03:22:59;25.60;55.20
21425;DHT22;10873;51.132;16.848;2023-05-16T03:25:27;25.50;55.20
21425;DHT22;10873;51.132;16.848;2023-05-16T03:27:53;25.60;55.30
21425;DHT22;10873;51.132;16.848;2023-05-16T03:30:19;25.50;55.20
21425;DHT22;10873;51.132;16.848;2023-05-16T03:32:45;25.50;55.20
21425;DHT22;10873;51.132;16.848;2023-05-16T03:35:11;25.50;55.30
21425;DHT22;10873;51.132;16.848;2023-05-16T03:37:37;25.50;55.30
21425;DHT22;10873;51.132;16.848;2023-05-16T03:40:05;25.50;55.40
21425;DHT22;10873;51.132;16.848;2023-05-16T03:42:32;25.50;55.40
21425;DHT22;10873;51.132;16.848;2023-05-16T03:44:58;25.50;55.40
21425;DHT22;10873;51.132;16.848;2023-05-16T03:47:24;25.50;55.30
21425;DHT22;10873;51.132;16.848;2023-05-16T03:49:51;25.50;55.40
21425;DHT22;10873;51.132;16.848;2023-05-16T03:52:18;25.50;55.30
21425;DHT22;10873;51.132;16.848;2023-05-16T03:54:44;25.50;55.30
21425;DHT22;10873;51.132;16.848;2023-05-16T03:57:10;25.50;55.30
21425;DHT22;10873;51.132;16.848;2023-05-16T03:59:37;25.50;55.30
21425;DHT22;10873;51.132;16.848;2023-05-16T04:02:04;25.50;55.20
21425;DHT22;10873;51.132;16.848;2023-05-16T04:04:30;25.50;55.10
21425;DHT22;10873;51.132;16.848;2023-05-16T04:06:56;25.50;55.10
21425;DHT22;10873;51.132;16.848;2023-05-16T04:09:22;25.40;55.20
21425;DHT22;10873;51.132;16.848;2023-05-16T04:11:48;25.40;55.30
21425;DHT22;10873;51.132;16.848;2023-05-16T04:14:14;25.40;55.60
21425;DHT22;10873;51.132;16.848;2023-05-16T04:16:42;25.40;55.70
21425;DHT22;10873;51.132;16.848;2023-05-16T04:19:08;25.40;55.70
21425;DHT22;10873;51.132;16.848;2023-05-16T04:21:34;25.40;55.70
21425;DHT22;10873;51.132;16.848;2023-05-16T04:24:01;25.40;55.80
21425;DHT22;10873;51.132;16.848;2023-05-16T04:26:27;25.30;55.80
21425;DHT22;10873;51.132;16.848;2023-05-16T04:28:54;25.40;55.90
21425;DHT22;10873;51.132;16.848;2023-05-16T04:31:21;25.30;55.90
21425;DHT22;10873;51.132;16.848;2023-05-16T04:33:48;25.30;56.00
21425;DHT22;10873;51.132;16.848;2023-05-16T04:36:15;25.30;56.00
21425;DHT22;10873;51.132;16.848;2023-05-16T04:38:41;25.30;56.00
21425;DHT22;10873;51.132;16.848;2023-05-16T04:41:07;25.30;56.10
21425;DHT22;10873;51.132;16.848;2023-05-16T04:43:33;25.20;56.10
21425;DHT22;10873;51.132;16.848;2023-05-16T04:46:00;25.20;56.20
21425;DHT22;10873;51.132;16.848;2023-05-16T04:48:26;25.30;56.30
21425;DHT22;10873;51.132;16.848;2023-05-16T04:50:53;25.20;56.30
21425;DHT22;10873;51.132;16.848;2023-05-16T04:53:20;25.20;56.30
21425;DHT22;10873;51.132;16.848;2023-05-16T04:55:46;25.20;56.40
21425;DHT22;10873;51.132;16.848;2023-05-16T04:58:12;25.20;56.40
21425;DHT22;10873;51.132;16.848;2023-05-16T05:00:38;25.20;56.40
21425;DHT22;10873;51.132;16.848;2023-05-16T05:03:04;25.20;56.50
21425;DHT22;10873;51.132;16.848;2023-05-16T05:05:30;25.20;56.50
21425;DHT22;10873;51.132;16.848;2023-05-16T05:07:58;25.20;56.50
21425;DHT22;10873;51.132;16.848;2023-05-16T05:10:25;25.10;56.50
21425;DHT22;10873;51.132;16.848;2023-05-16T05:12:52;25.10;56.50
21425;DHT22;10873;51.132;16.848;2023-05-16T05:15:18;25.10;56.60
21425;DHT22;10873;51.132;16.848;2023-05-16T05:17:44;25.10;56.70
21425;DHT22;10873;51.132;16.848;2023-05-16T05:20:11;25.10;56.70
21425;DHT22;10873;51.132;16.848;2023-05-16T05:22:37;25.10;56.80
21425;DHT22;10873;51.132;16.848;2023-05-16T05:25:05;25.10;56.80
21425;DHT22;10873;51.132;16.848;2023-05-16T05:27:31;25.10;56.80
21425;DHT22;10873;51.132;16.848;2023-05-16T05:29:58;25.10;56.90
21425;DHT22;10873;51.132;16.848;2023-05-16T05:32:23;25.10;57.00
21425;DHT22;10873;51.132;16.848;2023-05-16T05:34:50;25.10;57.00
21425;DHT22;10873;51.132;16.848;2023-05-16T05:37:16;25.10;57.00
21425;DHT22;10873;51.132;16.848;2023-05-16T05:39:42;25.10;57.10
21425;DHT22;10873;51.132;16.848;2023-05-16T05:42:11;25.10;57.10
21425;DHT22;10873;51.132;16.848;2023-05-16T05:44:37;25.00;57.10
21425;DHT22;10873;51.132;16.848;2023-05-16T05:47:03;25.00;57.20
21425;DHT22;10873;51.132;16.848;2023-05-16T05:49:31;25.00;57.30
21425;DHT22;10873;51.132;16.848;2023-05-16T05:51:57;25.10;57.40
21425;DHT22;10873;51.132;16.848;2023-05-16T05:54:23;25.00;57.40
21425;DHT22;10873;51.132;16.848;2023-05-16T05:56:49;25.00;57.50
21425;DHT22;10873;51.132;16.848;2023-05-16T05:59:17;25.00;57.50
21425;DHT22;10873;51.132;16.848;2023-05-16T06:01:42;25.00;57.50
21425;DHT22;10873;51.132;16.848;2023-05-16T06:04:09;25.00;57.60
21425;DHT22;10873;51.132;16.848;2023-05-16T06:06:36;25.00;57.70
21425;DHT22;10873;51.132;16.848;2023-05-16T06:09:02;25.00;57.70
21425;DHT22;10873;51.132;16.848;2023-05-16T06:11:28;25.00;57.70
21425;DHT22;10873;51.132;16.848;2023-05-16T06:13:54;25.00;57.80
21425;DHT22;10873;51.132;16.848;2023-05-16T06:16:24;25.00;57.80
21425;DHT22;10873;51.132;16.848;2023-05-16T06:18:51;25.00;57.80
21425;DHT22;10873;51.132;16.848;2023-05-16T06:21:17;25.00;57.90
21425;DHT22;10873;51.132;16.848;2023-05-16T06:23:43;25.00;58.60
21425;DHT22;10873;51.132;16.848;2023-05-16T06:26:09;25.00;58.00
21425;DHT22;10873;51.132;16.848;2023-05-16T06:28:35;25.00;58.10
21425;DHT22;10873;51.132;16.848;2023-05-16T06:31:01;25.00;58.20
21425;DHT22;10873;51.132;16.848;2023-05-16T06:33:28;25.00;58.30
21425;DHT22;10873;51.132;16.848;2023-05-16T06:35:54;25.00;58.50
21425;DHT22;10873;51.132;16.848;2023-05-16T06:38:20;25.00;58.60
21425;DHT22;10873;51.132;16.848;2023-05-16T06:40:46;25.00;58.70
21425;DHT22;10873;51.132;16.848;2023-05-16T06:43:12;25.00;58.70
21425;DHT22;10873;51.132;16.848;2023-05-16T06:45:38;25.00;58.70
21425;DHT22;10873;51.132;16.848;2023-05-16T06:48:06;25.00;58.70
21425;DHT22;10873;51.132;16.848;2023-05-16T06:50:33;25.00;58.70
21425;DHT22;10873;51.132;16.848;2023-05-16T06:53:03;25.10;58.90
21425;DHT22;10873;51.132;16.848;2023-05-16T06:55:29;25.00;58.70
21425;DHT22;10873;51.132;16.848;2023-05-16T06:57:55;25.10;58.80
21425;DHT22;10873;51.132;16.848;2023-05-16T07:00:22;25.10;58.80
21425;DHT22;10873;51.132;16.848;2023-05-16T07:02:48;25.20;59.00
21425;DHT22;10873;51.132;16.848;2023-05-16T07:05:14;25.20;58.90
21425;DHT22;10873;51.132;16.848;2023-05-16T07:07:41;25.20;58.90
21425;DHT22;10873;51.132;16.848;2023-05-16T07:10:08;25.20;58.90
21425;DHT22;10873;51.132;16.848;2023-05-16T07:12:35;25.20;59.00
21425;DHT22;10873;51.132;16.848;2023-05-16T07:15:02;25.20;59.00
21425;DHT22;10873;51.132;16.848;2023-05-16T07:17:29;25.20;59.00
21425;DHT22;10873;51.132;16.848;2023-05-16T07:19:54;25.30;59.10
21425;DHT22;10873;51.132;16.848;2023-05-16T07:22:21;25.30;59.10
21425;DHT22;10873;51.132;16.848;2023-05-16T07:24:48;25.30;59.10
21425;DHT22;10873;51.132;16.848;2023-05-16T07:27:14;25.30;59.10
21425;DHT22;10873;51.132;16.848;2023-05-16T07:29:40;25.30;59.10
21425;DHT22;10873;51.132;16.848;2023-05-16T07:32:07;25.30;59.20
21425;DHT22;10873;51.132;16.848;2023-05-16T07:34:32;25.30;59.20
21425;DHT22;10873;51.132;16.848;2023-05-16T07:36:59;25.40;59.30
21425;DHT22;10873;51.132;16.848;2023-05-16T07:39:24;25.30;59.10
21425;DHT22;10873;51.132;16.848;2023-05-16T07:41:52;25.30;59.10
21425;DHT22;10873;51.132;16.848;2023-05-16T07:44:18;25.40;59.20
21425;DHT22;10873;51.132;16.848;2023-05-16T07:46:44;25.40;59.20
21425;DHT22;10873;51.132;16.848;2023-05-16T07:49:10;25.40;59.10
21425;DHT22;10873;51.132;16.848;2023-05-16T07:51:36;25.40;59.10
21425;DHT22;10873;51.132;16.848;2023-05-16T07:54:02;25.40;59.10
21425;DHT22;10873;51.132;16.848;2023-05-16T07:56:28;25.40;59.00
21425;DHT22;10873;51.132;16.848;2023-05-16T07:58:56;25.40;59.00
21425;DHT22;10873;51.132;16.848;2023-05-16T08:01:22;25.40;58.90
21425;DHT22;10873;51.132;16.848;2023-05-16T08:03:48;25.40;59.00
21425;DHT22;10873;51.132;16.848;2023-05-16T08:06:14;25.40;59.00
21425;DHT22;10873;51.132;16.848;2023-05-16T08:08:40;25.40;59.00
21425;DHT22;10873;51.132;16.848;2023-05-16T08:11:06;25.40;59.10
21425;DHT22;10873;51.132;16.848;2023-05-16T08:13:32;25.40;59.10
21425;DHT22;10873;51.132;16.848;2023-05-16T08:15:59;25.40;59.10
21425;DHT22;10873;51.132;16.848;2023-05-16T08:18:25;25.40;59.10
21425;DHT22;10873;51.132;16.848;2023-05-16T08:20:51;25.40;59.10
21425;DHT22;10873;51.132;16.848;2023-05-16T08:23:17;25.40;59.00
21425;DHT22;10873;51.132;16.848;2023-05-16T08:25:43;25.40;59.10
21425;DHT22;10873;51.132;16.848;2023-05-16T08:28:09;25.40;59.10
21425;DHT22;10873;51.132;16.848;2023-05-16T08:30:35;25.40;59.00
21425;DHT22;10873;51.132;16.848;2023-05-16T08:33:04;25.40;59.00
21425;DHT22;10873;51.132;16.848;2023-05-16T08:35:31;25.40;58.90
21425;DHT22;10873;51.132;16.848;2023-05-16T08:37:57;25.50;59.00
21425;DHT22;10873;51.132;16.848;2023-05-16T08:40:25;25.50;58.90
21425;DHT22;10873;51.132;16.848;2023-05-16T08:42:52;25.50;58.80
21425;DHT22;10873;51.132;16.848;2023-05-16T08:45:18;25.50;58.80
21425;DHT22;10873;51.132;16.848;2023-05-16T08:47:49;25.50;58.80
21425;DHT22;10873;51.132;16.848;2023-05-16T08:50:18;25.50;58.70
21425;DHT22;10873;51.132;16.848;2023-05-16T08:52:46;25.50;58.70
21425;DHT22;10873;51.132;16.848;2023-05-16T08:55:18;25.50;58.60
21425;DHT22;10873;51.132;16.848;2023-05-16T08:57:44;25.50;58.50
21425;DHT22;10873;51.132;16.848;2023-05-16T09:00:12;25.50;58.50
21425;DHT22;10873;51.132;16.848;2023-05-16T09:02:38;25.60;58.40
21425;DHT22;10873;51.132;16.848;2023-05-16T09:05:08;25.50;58.40
21425;DHT22;10873;51.132;16.848;2023-05-16T09:07:37;25.50;58.50
21425;DHT22;10873;51.132;16.848;2023-05-16T09:10:04;25.50;58.80
21425;DHT22;10873;51.132;16.848;2023-05-16T09:12:31;25.50;59.10
21425;DHT22;10873;51.132;16.848;2023-05-16T09:14:58;25.50;59.50
21425;DHT22;10873;51.132;16.848;2023-05-16T09:17:24;25.50;60.10
21425;DHT22;10873;51.132;16.848;2023-05-16T09:19:51;25.50;60.50
21425;DHT22;10873;51.132;16.848;2023-05-16T09:22:22;25.60;60.40
21425;DHT22;10873;51.132;16.848;2023-05-16T09:24:50;25.60;60.60
21425;DHT22;10873;51.132;16.848;2023-05-16T09:27:16;25.70;61.10
21425;DHT22;10873;51.132;16.848;2023-05-16T09:29:42;25.80;63.80
21425;DHT22;10873;51.132;16.848;2023-05-16T09:32:10;26.00;67.80
21425;DHT22;10873;51.132;16.848;2023-05-16T09:34:38;26.40;68.40
21425;DHT22;10873;51.132;16.848;2023-05-16T09:37:04;26.80;68.60
21425;DHT22;10873;51.132;16.848;2023-05-16T09:39:31;27.20;68.10
21425;DHT22;10873;51.132;16.848;2023-05-16T09:41:59;27.60;67.80
21425;DHT22;10873;51.132;16.848;2023-05-16T09:44:27;27.90;67.00
21425;DHT22;10873;51.132;16.848;2023-05-16T09:46:53;28.30;66.40
21425;DHT22;10873;51.132;16.848;2023-05-16T09:49:20;28.50;65.00
21425;DHT22;10873;51.132;16.848;2023-05-16T09:51:46;28.80;64.80
21425;DHT22;10873;51.132;16.848;2023-05-16T09:54:12;29.00;63.90
21425;DHT22;10873;51.132;16.848;2023-05-16T09:56:48;29.30;63.70
21425;DHT22;10873;51.132;16.848;2023-05-16T09:59:16;29.50;62.70
21425;DHT22;10873;51.132;16.848;2023-05-16T10:01:42;29.80;62.10
21425;DHT22;10873;51.132;16.848;2023-05-16T10:04:09;30.00;61.50
21425;DHT22;10873;51.132;16.848;2023-05-16T10:06:39;30.30;60.80
21425;DHT22;10873;51.132;16.848;2023-05-16T10:09:10;30.50;60.30
21425;DHT22;10873;51.132;16.848;2023-05-16T10:11:37;30.70;59.70
21425;DHT22;10873;51.132;16.848;2023-05-16T10:14:04;30.90;59.40
21425;DHT22;10873;51.132;16.848;2023-05-16T10:16:32;31.00;58.50
21425;DHT22;10873;51.132;16.848;2023-05-16T10:19:00;31.20;58.30
21425;DHT22;10873;51.132;16.848;2023-05-16T10:21:28;31.40;58.20
21425;DHT22;10873;51.132;16.848;2023-05-16T10:23:57;31.50;58.00
21425;DHT22;10873;51.132;16.848;2023-05-16T10:26:25;31.70;57.90
21425;DHT22;10873;51.132;16.848;2023-05-16T10:28:52;31.90;57.50
21425;DHT22;10873;51.132;16.848;2023-05-16T10:31:18;32.00;58.10
21425;DHT22;10873;51.132;16.848;2023-05-16T10:33:47;31.90;57.10
21425;DHT22;10873;51.132;16.848;2023-05-16T10:36:13;31.70;57.00
21425;DHT22;10873;51.132;16.848;2023-05-16T10:38:42;31.50;56.20
21425;DHT22;10873;51.132;16.848;2023-05-16T10:41:10;31.20;56.20
21425;DHT22;10873;51.132;16.848;2023-05-16T10:43:36;31.00;56.40
21425;DHT22;10873;51.132;16.848;2023-05-16T10:46:03;30.70;56.50
21425;DHT22;10873;51.132;16.848;2023-05-16T10:48:31;30.60;56.70
21425;DHT22;10873;51.132;16.848;2023-05-16T10:50:59;30.40;55.80
21425;DHT22;10873;51.132;16.848;2023-05-16T10:53:30;30.30;55.90
21425;DHT22;10873;51.132;16.848;2023-05-16T10:56:10;30.10;55.60
21425;DHT22;10873;51.132;16.848;2023-05-16T10:58:40;30.00;55.40
21425;DHT22;10873;51.132;16.848;2023-05-16T11:01:21;29.90;55.50
21425;DHT22;10873;51.132;16.848;2023-05-16T11:04:01;29.70;55.20
21425;DHT22;10873;51.132;16.848;2023-05-16T11:06:29;29.60;55.10
21425;DHT22;10873;51.132;16.848;2023-05-16T11:09:03;29.50;55.10
21425;DHT22;10873;51.132;16.848;2023-05-16T11:11:39;29.40;55.00
21425;DHT22;10873;51.132;16.848;2023-05-16T11:14:06;29.40;54.90
21425;DHT22;10873;51.132;16.848;2023-05-16T11:16:32;29.30;55.00
21425;DHT22;10873;51.132;16.848;2023-05-16T11:19:03;29.20;54.90
21425;DHT22;10873;51.132;16.848;2023-05-16T11:22:10;29.10;54.90
21425;DHT22;10873;51.132;16.848;2023-05-16T11:24:37;29.10;55.00
21425;DHT22;10873;51.132;16.848;2023-05-16T11:27:05;29.00;54.80
21425;DHT22;10873;51.132;16.848;2023-05-16T11:29:31;29.00;54.90
21425;DHT22;10873;51.132;16.848;2023-05-16T11:31:58;28.90;54.90
21425;DHT22;10873;51.132;16.848;2023-05-16T11:34:25;28.80;55.00
21425;DHT22;10873;51.132;16.848;2023-05-16T11:36:51;28.80;55.10
21425;DHT22;10873;51.132;16.848;2023-05-16T11:39:19;28.70;55.20
21425;DHT22;10873;51.132;16.848;2023-05-16T11:41:45;28.70;55.30
21425;DHT22;10873;51.132;16.848;2023-05-16T11:44:12;28.60;55.30
21425;DHT22;10873;51.132;16.848;2023-05-16T11:46:38;28.60;55.30
21425;DHT22;10873;51.132;16.848;2023-05-16T11:49:05;28.60;55.30
21425;DHT22;10873;51.132;16.848;2023-05-16T11:51:32;28.50;55.10
21425;DHT22;10873;51.132;16.848;2023-05-16T11:54:01;28.50;55.10
21425;DHT22;10873;51.132;16.848;2023-05-16T11:56:30;28.50;55.10
21425;DHT22;10873;51.132;16.848;2023-05-16T11:58:58;28.40;55.10
21425;DHT22;10873;51.132;16.848;2023-05-16T12:01:24;28.40;55.20
21425;DHT22;10873;51.132;16.848;2023-05-16T12:03:54;28.30;55.20
21425;DHT22;10873;51.132;16.848;2023-05-16T12:06:21;28.30;55.20
21425;DHT22;10873;51.132;16.848;2023-05-16T12:08:49;28.30;55.40
21425;DHT22;10873;51.132;16.848;2023-05-16T12:11:16;28.20;55.40
21425;DHT22;10873;51.132;16.848;2023-05-16T12:13:44;28.20;55.40
21425;DHT22;10873;51.132;16.848;2023-05-16T12:16:10;28.20;55.50
21425;DHT22;10873;51.132;16.848;2023-05-16T12:18:37;28.10;55.50
21425;DHT22;10873;51.132;16.848;2023-05-16T12:21:03;28.10;55.60
21425;DHT22;10873;51.132;16.848;2023-05-16T12:23:32;28.10;55.70
21425;DHT22;10873;51.132;16.848;2023-05-16T12:25:58;28.00;55.60
21425;DHT22;10873;51.132;16.848;2023-05-16T12:28:30;28.00;55.60
21425;DHT22;10873;51.132;16.848;2023-05-16T12:31:00;27.90;55.50
21425;DHT22;10873;51.132;16.848;2023-05-16T12:33:26;27.90;55.50
21425;DHT22;10873;51.132;16.848;2023-05-16T12:35:52;27.80;55.40
21425;DHT22;10873;51.132;16.848;2023-05-16T12:38:19;27.80;55.50
21425;DHT22;10873;51.132;16.848;2023-05-16T12:40:46;27.70;55.50
21425;DHT22;10873;51.132;16.848;2023-05-16T12:43:13;27.70;55.70
21425;DHT22;10873;51.132;16.848;2023-05-16T12:45:40;27.70;55.90
21425;DHT22;10873;51.132;16.848;2023-05-16T12:48:12;27.70;56.00
21425;DHT22;10873;51.132;16.848;2023-05-16T12:50:39;27.60;56.10
21425;DHT22;10873;51.132;16.848;2023-05-16T12:53:10;27.60;56.10
21425;DHT22;10873;51.132;16.848;2023-05-16T12:55:37;27.50;56.10
21425;DHT22;10873;51.132;16.848;2023-05-16T12:58:03;27.50;56.20
21425;DHT22;10873;51.132;16.848;2023-05-16T13:00:29;27.50;56.20
21425;DHT22;10873;51.132;16.848;2023-05-16T13:02:57;27.40;56.20
21425;DHT22;10873;51.132;16.848;2023-05-16T13:05:24;27.40;56.30
21425;DHT22;10873;51.132;16.848;2023-05-16T13:07:50;27.40;56.30
21425;DHT22;10873;51.132;16.848;2023-05-16T13:10:17;27.40;56.70
21425;DHT22;10873;51.132;16.848;2023-05-16T13:12:43;27.30;56.90
21425;DHT22;10873;51.132;16.848;2023-05-16T13:15:10;27.20;57.10
21425;DHT22;10873;51.132;16.848;2023-05-16T13:17:37;27.20;57.30
21425;DHT22;10873;51.132;16.848;2023-05-16T13:20:04;27.10;57.50
21425;DHT22;10873;51.132;16.848;2023-05-16T13:22:36;27.00;57.60
21425;DHT22;10873;51.132;16.848;2023-05-16T13:25:02;27.00;57.70
21425;DHT22;10873;51.132;16.848;2023-05-16T13:27:29;26.90;57.80
21425;DHT22;10873;51.132;16.848;2023-05-16T13:29:55;26.80;57.70
21425;DHT22;10873;51.132;16.848;2023-05-16T13:32:22;26.70;57.80
21425;DHT22;10873;51.132;16.848;2023-05-16T13:34:48;26.70;57.90
21425;DHT22;10873;51.132;16.848;2023-05-16T13:37:14;26.60;57.90
21425;DHT22;10873;51.132;16.848;2023-05-16T13:39:41;26.60;58.00
21425;DHT22;10873;51.132;16.848;2023-05-16T13:42:08;26.50;58.00
21425;DHT22;10873;51.132;16.848;2023-05-16T13:44:34;26.40;58.10
21425;DHT22;10873;51.132;16.848;2023-05-16T13:47:01;26.40;58.20
21425;DHT22;10873;51.132;16.848;2023-05-16T13:49:27;26.40;58.50
21425;DHT22;10873;51.132;16.848;2023-05-16T13:51:54;26.30;58.60
21425;DHT22;10873;51.132;16.848;2023-05-16T13:54:20;26.30;58.70
21425;DHT22;10873;51.132;16.848;2023-05-16T13:56:49;26.30;58.80
21425;DHT22;10873;51.132;16.848;2023-05-16T13:59:14;26.30;58.80
21425;DHT22;10873;51.132;16.848;2023-05-16T14:01:41;26.30;58.90
21425;DHT22;10873;51.132;16.848;2023-05-16T14:04:06;26.20;58.90
21425;DHT22;10873;51.132;16.848;2023-05-16T14:06:33;26.20;59.00
21425;DHT22;10873;51.132;16.848;2023-05-16T14:08:58;26.20;59.00
21425;DHT22;10873;51.132;16.848;2023-05-16T14:11:25;26.10;58.90
21425;DHT22;10873;51.132;16.848;2023-05-16T14:13:53;26.10;58.80
21425;DHT22;10873;51.132;16.848;2023-05-16T14:16:20;26.10;58.80
21425;DHT22;10873;51.132;16.848;2023-05-16T14:18:46;26.00;58.70
21425;DHT22;10873;51.132;16.848;2023-05-16T14:21:12;26.00;58.70
21425;DHT22;10873;51.132;16.848;2023-05-16T14:23:39;26.00;58.70
21425;DHT22;10873;51.132;16.848;2023-05-16T14:26:05;26.00;58.70
21425;DHT22;10873;51.132;16.848;2023-05-16T14:28:31;26.00;58.70
21425;DHT22;10873;51.132;16.848;2023-05-16T14:31:00;26.00;58.80
21425;DHT22;10873;51.132;16.848;2023-05-16T14:33:26;25.90;58.70
21425;DHT22;10873;51.132;16.848;2023-05-16T14:35:52;25.90;58.80
21425;DHT22;10873;51.132;16.848;2023-05-16T14:38:19;25.90;58.70
21425;DHT22;10873;51.132;16.848;2023-05-16T14:40:45;25.90;58.70
21425;DHT22;10873;51.132;16.848;2023-05-16T14:43:11;25.90;58.70
21425;DHT22;10873;51.132;16.848;2023-05-16T14:45:38;25.90;58.70
21425;DHT22;10873;51.132;16.848;2023-05-16T14:48:05;25.90;58.70
21425;DHT22;10873;51.132;16.848;2023-05-16T14:50:32;25.90;58.70
21425;DHT22;10873;51.132;16.848;2023-05-16T14:52:57;25.90;58.70
21425;DHT22;10873;51.132;16.848;2023-05-16T14:55:24;25.90;58.70
21425;DHT22;10873;51.132;16.848;2023-05-16T14:57:50;25.90;58.70
21425;DHT22;10873;51.132;16.848;2023-05-16T15:00:20;25.90;58.60
21425;DHT22;10873;51.132;16.848;2023-05-16T15:02:47;25.80;58.50
21425;DHT22;10873;51.132;16.848;2023-05-16T15:05:15;25.90;58.60
21425;DHT22;10873;51.132;16.848;2023-05-16T15:07:41;25.80;58.50
21425;DHT22;10873;51.132;16.848;2023-05-16T15:10:09;25.80;58.50
21425;DHT22;10873;51.132;16.848;2023-05-16T15:12:35;25.80;58.50
21425;DHT22;10873;51.132;16.848;2023-05-16T15:15:01;25.80;58.60